createdAt,value
2022-08-05T00:02:24.268Z,23.99
2022-08-05T00:04:55.595Z,23.71
2022-08-05T00:08:00.464Z,23.79
2022-08-05T00:10:11.529Z,23.61
2022-08-05T00:12:56.748Z,23.61
2022-08-05T00:15:54.990Z,23.81
2022-08-05T00:18:21.393Z,23.66
2022-08-05T00:20:50.421Z,23.64
2022-08-05T00:23:44.792Z,23.57
2022-08-05T00:26:07.071Z,23.45
2022-08-05T00:28:35.206Z,23.15
2022-08-05T00:31:04.491Z,23.08
2022-08-05T00:34:56.057Z,23.45
2022-08-05T00:37:10.632Z,23.24
2022-08-05T00:39:13.649Z,23.14
2022-08-05T00:41:52.143Z,22.96
2022-08-05T00:44:30.946Z,23.11
2022-08-05T00:47:03.811Z,22.97
2022-08-05T00:49:44.757Z,23.18
2022-08-05T00:52:28.310Z,22.77
2022-08-05T00:54:56.993Z,22.74
2022-08-05T00:57:31.702Z,23.15
2022-08-05T01:00:11.214Z,23.19
2022-08-05T01:02:41.104Z,23.09
2022-08-05T01:05:10.532Z,23.02
2022-08-05T01:07:38.292Z,22.71
2022-08-05T01:10:31.668Z,23.06
2022-08-05T01:13:13.407Z,23.08
2022-08-05T01:15:58.124Z,22.97
2022-08-05T01:18:30.742Z,22.77
2022-08-05T01:21:12.379Z,22.83
2022-08-05T01:24:13.127Z,22.92
2022-08-05T01:26:57.907Z,23.13
2022-08-05T01:29:32.927Z,23.09
2022-08-05T01:32:07.087Z,22.90
2022-08-05T01:34:46.910Z,23.01
2022-08-05T01:37:24.878Z,23.12
2022-08-05T01:39:59.200Z,23.39
2022-08-05T01:42:28.877Z,23.22
2022-08-05T01:45:02.117Z,22.80
2022-08-05T01:47:39.758Z,22.89
2022-08-05T01:50:15.962Z,23.07
2022-08-05T01:52:49.974Z,23.15
2022-08-05T01:55:20.329Z,22.99
2022-08-05T01:58:12.249Z,23.00
2022-08-05T02:00:45.376Z,23.01
2022-08-05T02:03:24.460Z,23.25
2022-08-05T02:06:03.353Z,22.99
2022-08-05T02:08:55.004Z,22.88
2022-08-05T02:11:33.146Z,22.87
2022-08-05T02:14:08.107Z,22.80
2022-08-05T02:16:52.258Z,22.77
2022-08-05T02:19:34.455Z,22.65
2022-08-05T02:22:10.109Z,22.66
2022-08-05T02:24:56.857Z,22.61
2022-08-05T02:27:30.187Z,22.61
2022-08-05T02:30:17.808Z,22.50
2022-08-05T02:32:50.474Z,22.72
2022-08-05T02:35:27.765Z,22.65
2022-08-05T02:37:59.122Z,22.48
2022-08-05T02:40:28.499Z,22.26
2022-08-05T02:42:57.971Z,22.32
2022-08-05T02:45:28.451Z,22.74
2022-08-05T02:48:12.129Z,22.47
2022-08-05T02:50:44.007Z,22.51
2022-08-05T02:53:18.719Z,22.89
2022-08-05T02:55:54.420Z,22.89
2022-08-05T02:58:30.216Z,22.23
2022-08-05T03:01:02.283Z,22.32
2022-08-05T03:03:34.036Z,22.66
2022-08-05T03:06:55.284Z,22.48
2022-08-05T03:09:15.805Z,22.62
2022-08-05T03:11:54.843Z,22.63
2022-08-05T03:14:26.244Z,22.62
2022-08-05T03:16:54.146Z,22.39
2022-08-05T03:19:34.637Z,22.34
2022-08-05T03:22:04.885Z,22.35
2022-08-05T03:24:46.929Z,22.69
2022-08-05T03:27:19.899Z,22.54
2022-08-05T03:30:08.777Z,22.77
2022-08-05T03:32:36.264Z,22.46
2022-08-05T03:35:06.376Z,22.66
2022-08-05T03:37:44.694Z,22.70
2022-08-05T03:40:15.292Z,22.68
2022-08-05T03:42:52.900Z,22.66
2022-08-05T03:45:23.076Z,22.68
2022-08-05T03:47:51.707Z,22.73
2022-08-05T03:50:28.414Z,22.66
2022-08-05T03:55:49.684Z,22.63
2022-08-05T03:56:09.971Z,22.42
2022-08-05T03:58:45.926Z,22.14
2022-08-05T04:01:15.732Z,21.91
2022-08-05T04:04:09.381Z,22.22
2022-08-05T04:06:47.741Z,22.35
2022-08-05T04:09:20.325Z,22.70
2022-08-05T04:11:54.327Z,22.70
2022-08-05T04:14:30.663Z,22.77
2022-08-05T04:17:00.632Z,22.44
2022-08-05T04:19:29.521Z,22.88
2022-08-05T04:22:09.918Z,22.75
2022-08-05T04:24:43.782Z,22.62
2022-08-05T04:27:13.142Z,23.10
2022-08-05T04:29:42.598Z,22.90
2022-08-05T04:32:10.662Z,23.10
2022-08-05T04:34:42.671Z,23.04
2022-08-05T04:37:12.697Z,23.07
2022-08-05T04:39:40.781Z,22.88
2022-08-05T04:42:09.549Z,22.77
2022-08-05T04:44:37.317Z,22.31
2022-08-05T04:47:08.883Z,22.36
2022-08-05T04:50:01.712Z,22.87
2022-08-05T04:52:27.911Z,22.82
2022-08-05T04:54:56.893Z,22.78
2022-08-05T04:57:28.925Z,22.99
2022-08-05T04:59:58.478Z,23.08
2022-08-05T05:02:36.572Z,23.07
2022-08-05T05:05:16.588Z,23.19
2022-08-05T05:08:01.613Z,23.02
2022-08-05T05:10:30.834Z,22.91
2022-08-05T05:13:03.841Z,23.01
2022-08-05T05:15:57.927Z,22.84
2022-08-05T05:18:31.307Z,22.63
2022-08-05T05:21:01.890Z,22.76
2022-08-05T05:23:39.236Z,23.04
2022-08-05T05:26:19.152Z,22.73
2022-08-05T05:28:47.119Z,22.35
2022-08-05T05:31:14.888Z,22.82
2022-08-05T05:33:59.664Z,22.20
2022-08-05T05:36:30.889Z,22.74
2022-08-05T05:39:03.603Z,22.84
2022-08-05T05:41:40.405Z,22.97
2022-08-05T05:44:35.860Z,22.85
2022-08-05T05:46:58.102Z,22.41
2022-08-05T05:49:26.203Z,22.53
2022-08-05T05:51:54.227Z,22.61
2022-08-05T05:54:49.741Z,22.69
2022-08-05T05:57:13.843Z,22.48
2022-08-05T05:59:47.157Z,22.22
2022-08-05T06:02:16.888Z,22.26
2022-08-05T06:04:44.776Z,22.23
2022-08-05T06:07:17.251Z,22.64
2022-08-05T06:10:01.493Z,22.13
2022-08-05T06:12:34.733Z,22.29
2022-08-05T06:15:16.527Z,22.17
2022-08-05T06:17:54.253Z,22.18
2022-08-05T06:20:23.037Z,22.29
2022-08-05T06:22:51.007Z,22.02
2022-08-05T06:25:24.301Z,21.95
2022-08-05T06:28:11.536Z,22.11
2022-08-05T06:30:48.316Z,22.34
2022-08-05T06:33:19.007Z,22.25
2022-08-05T06:36:07.389Z,22.56
2022-08-05T06:38:36.191Z,22.67
2022-08-05T06:41:07.938Z,22.55
2022-08-05T06:43:57.956Z,22.62
2022-08-05T06:46:30.156Z,22.45
2022-08-05T06:48:59.342Z,22.43
2022-08-05T06:51:29.763Z,22.31
2022-08-05T06:53:58.280Z,22.17
2022-08-05T06:56:27.751Z,22.11
2022-08-05T06:58:55.666Z,22.00
2022-08-05T07:01:27.744Z,22.03
2022-08-05T07:04:00.499Z,22.09
2022-08-05T07:06:28.776Z,22.12
2022-08-05T07:08:56.496Z,22.01
2022-08-05T07:11:30.931Z,21.83
2022-08-05T07:14:29.007Z,21.49
2022-08-05T07:17:59.333Z,22.06
2022-08-05T07:22:36.629Z,21.74
2022-08-05T07:25:22.869Z,22.02
2022-08-05T07:28:02.301Z,21.83
2022-08-05T07:30:38.922Z,22.04
2022-08-05T07:33:10.380Z,22.00
2022-08-05T07:36:02.813Z,21.63
2022-08-05T07:38:42.498Z,21.69
2022-08-05T07:42:09.547Z,21.75
2022-08-05T07:44:03.936Z,21.93
2022-08-05T07:46:33.831Z,21.83
2022-08-05T07:49:05.969Z,21.45
2022-08-05T07:51:40.378Z,21.69
2022-08-05T07:54:11.428Z,21.74
2022-08-05T07:57:14.881Z,21.57
2022-08-05T07:59:39.117Z,21.38
2022-08-05T08:04:45.509Z,21.63
2022-08-05T08:07:13.711Z,22.28
2022-08-05T08:09:41.520Z,21.84
2022-08-05T08:12:19.063Z,21.85
2022-08-05T08:15:02.214Z,21.87
2022-08-05T08:17:31.473Z,21.95
2022-08-05T08:20:44.014Z,21.50
2022-08-05T08:22:52.314Z,21.74
2022-08-05T08:25:26.542Z,21.91
2022-08-05T08:27:54.988Z,21.97
2022-08-05T08:30:32.374Z,22.52
2022-08-05T08:33:08.797Z,22.41
2022-08-05T08:35:53.190Z,21.96
2022-08-05T08:38:32.170Z,22.50
2022-08-05T08:41:07.209Z,22.35
2022-08-05T08:45:22.543Z,22.47
2022-08-05T08:46:29.033Z,22.64
2022-08-05T08:49:06.093Z,22.43
2022-08-05T08:52:03.359Z,22.54
2022-08-05T08:54:36.529Z,22.62
2022-08-05T08:57:11.497Z,22.57
2022-08-05T08:59:47.179Z,22.47
2022-08-05T09:02:19.057Z,22.43
2022-08-05T09:05:16.805Z,22.35
2022-08-05T09:07:39.899Z,22.29
2022-08-05T09:10:27.068Z,22.14
2022-08-05T09:12:56.855Z,22.25
2022-08-05T09:15:32.365Z,22.78
2022-08-05T09:18:08.666Z,22.87
2022-08-05T09:20:38.067Z,22.60
2022-08-05T09:23:19.861Z,22.37
2022-08-05T09:26:01.957Z,22.36
2022-08-05T09:28:34.062Z,22.33
2022-08-05T09:31:44.071Z,22.49
2022-08-05T09:33:58.443Z,22.39
2022-08-05T09:36:38.519Z,22.50
2022-08-05T09:39:23.037Z,22.37
2022-08-05T09:41:58.585Z,22.06
2022-08-05T09:44:40.986Z,22.04
2022-08-05T09:47:14.095Z,21.90
2022-08-05T09:50:00.525Z,21.77
2022-08-05T09:52:33.731Z,22.07
2022-08-05T09:55:21.143Z,21.72
2022-08-05T09:57:54.643Z,21.60
2022-08-05T10:00:26.901Z,21.59
2022-08-05T10:02:58.462Z,21.35
2022-08-05T10:05:32.763Z,21.40
2022-08-05T10:08:35.406Z,21.63
2022-08-05T10:10:54.486Z,21.54
2022-08-05T10:13:44.067Z,21.61
2022-08-05T10:16:41.572Z,21.53
2022-08-05T10:19:11.747Z,21.61
2022-08-05T10:21:41.321Z,21.61
2022-08-05T10:24:13.242Z,21.44
2022-08-05T10:26:51.953Z,21.78
2022-08-05T10:29:23.691Z,21.46
2022-08-05T10:32:52.877Z,21.30
2022-08-05T10:34:41.145Z,21.18
2022-08-05T10:37:13.220Z,20.97
2022-08-05T10:40:04.162Z,21.29
2022-08-05T10:42:38.455Z,21.28
2022-08-05T10:45:23.341Z,21.28
2022-08-05T10:48:31.571Z,21.55
2022-08-05T10:51:00.692Z,21.24
2022-08-05T10:53:42.594Z,20.99
2022-08-05T10:56:25.169Z,20.94
2022-08-05T10:59:12.680Z,21.06
2022-08-05T11:02:08.146Z,21.23
2022-08-05T11:04:45.252Z,21.43
2022-08-05T11:07:16.286Z,21.45
2022-08-05T11:09:47.774Z,21.19
2022-08-05T11:12:54.328Z,21.31
2022-08-05T11:15:59.235Z,21.68
2022-08-05T11:18:27.303Z,21.72
2022-08-05T11:20:58.265Z,21.87
2022-08-05T11:23:33.198Z,21.64
2022-08-05T11:26:09.178Z,21.54
2022-08-05T11:28:46.100Z,21.81
2022-08-05T11:31:58.243Z,21.63
2022-08-05T11:34:37.947Z,21.46
2022-08-05T11:38:30.195Z,21.81
2022-08-05T11:39:55.442Z,21.59
2022-08-05T11:42:30.110Z,21.67
2022-08-05T11:45:05.346Z,22.08
2022-08-05T11:47:48.444Z,21.96
2022-08-05T11:50:18.047Z,21.77
2022-08-05T11:52:48.838Z,21.93
2022-08-05T11:55:18.258Z,22.22
2022-08-05T11:58:10.385Z,21.92
2022-08-05T12:00:37.771Z,21.61
2022-08-05T12:03:23.927Z,21.89
2022-08-05T12:06:02.777Z,21.69
2022-08-05T12:08:32.874Z,22.16
2022-08-05T12:11:05.825Z,22.26
2022-08-05T12:13:48.511Z,22.16
2022-08-05T12:16:19.752Z,22.14
2022-08-05T12:18:53.759Z,21.86
2022-08-05T12:21:29.881Z,21.79
2022-08-05T12:24:05.114Z,22.00
2022-08-05T12:26:33.952Z,21.39
2022-08-05T12:29:04.175Z,21.26
2022-08-05T12:31:41.498Z,21.59
2022-08-05T12:34:21.455Z,21.29
2022-08-05T12:36:53.265Z,20.98
2022-08-05T12:39:21.697Z,21.17
2022-08-05T12:41:51.391Z,21.49
2022-08-05T12:44:33.425Z,21.03
2022-08-05T12:47:02.832Z,21.10
2022-08-05T12:50:02.276Z,20.77
2022-08-05T12:52:38.931Z,20.91
2022-08-05T12:55:22.237Z,21.15
2022-08-05T12:58:50.017Z,20.73
2022-08-05T13:02:01.664Z,20.78
2022-08-05T13:03:32.994Z,21.18
2022-08-05T13:06:01.442Z,21.33
2022-08-05T13:08:32.394Z,21.17
2022-08-05T13:11:02.003Z,20.85
2022-08-05T13:14:05.714Z,20.71
2022-08-05T13:16:25.099Z,20.88
2022-08-05T13:18:58.428Z,20.80
2022-08-05T13:21:28.506Z,20.25
2022-08-05T13:24:08.718Z,20.41
2022-08-05T13:26:36.941Z,20.38
2022-08-05T13:29:05.495Z,20.14
2022-08-05T13:32:03.924Z,19.96
2022-08-05T13:34:25.854Z,19.76
2022-08-05T13:36:54.417Z,20.36
2022-08-05T13:39:24.376Z,19.80
2022-08-05T13:42:14.287Z,20.09
2022-08-05T13:44:45.458Z,20.00
2022-08-05T13:47:28.133Z,19.73
2022-08-05T13:50:04.529Z,19.33
2022-08-05T13:52:35.186Z,19.50
2022-08-05T13:55:07.294Z,19.49
2022-08-05T13:57:51.573Z,19.56
2022-08-05T14:00:27.194Z,19.78
2022-08-05T14:02:57.464Z,19.70
2022-08-05T14:05:48.287Z,19.84
2022-08-05T14:08:21.263Z,19.70
2022-08-05T14:11:08.090Z,19.54
2022-08-05T14:13:48.206Z,19.95
2022-08-05T14:16:16.709Z,19.98
2022-08-05T14:18:46.626Z,19.69
2022-08-05T14:22:07.777Z,19.80
2022-08-05T14:24:02.361Z,20.11
2022-08-05T14:26:38.312Z,19.63
2022-08-05T14:29:16.084Z,19.63
2022-08-05T14:32:02.910Z,19.61
2022-08-05T14:34:35.491Z,19.67
2022-08-05T14:37:04.209Z,19.59
2022-08-05T14:39:50.157Z,19.68
2022-08-05T14:42:21.852Z,19.90
2022-08-05T14:44:49.840Z,20.27
2022-08-05T14:48:02.482Z,20.35
2022-08-05T14:50:18.204Z,20.27
2022-08-05T14:52:58.716Z,19.60
2022-08-05T14:55:28.702Z,19.39
2022-08-05T14:58:11.264Z,19.75
2022-08-05T15:00:58.666Z,19.81
2022-08-05T15:03:33.547Z,19.90
2022-08-05T15:06:15.501Z,19.31
2022-08-05T15:08:59.705Z,19.33
2022-08-05T15:11:50.994Z,19.68
2022-08-05T15:14:34.750Z,19.64
2022-08-05T15:17:14.729Z,19.80
2022-08-05T15:19:56.963Z,19.42
2022-08-05T15:22:27.162Z,19.44
2022-08-05T15:24:55.774Z,19.66
2022-08-05T15:27:25.656Z,19.62
2022-08-05T15:29:54.265Z,19.35
2022-08-05T15:32:27.510Z,19.49
2022-08-05T15:34:56.888Z,19.72
2022-08-05T15:38:09.242Z,19.80
2022-08-05T15:41:02.190Z,19.82
2022-08-05T15:43:09.313Z,19.83
2022-08-05T15:45:45.663Z,19.61
2022-08-05T15:48:15.213Z,19.61
2022-08-05T15:50:45.513Z,19.66
2022-08-05T15:53:15.233Z,19.69
2022-08-05T15:56:04.323Z,19.93
2022-08-05T15:58:35.566Z,19.63
2022-08-05T16:01:17.126Z,20.20
2022-08-05T16:03:48.311Z,19.95
2022-08-05T16:06:19.940Z,19.90
2022-08-05T16:08:53.771Z,20.12
2022-08-05T16:11:42.984Z,20.73
2022-08-05T16:14:11.164Z,20.14
2022-08-05T16:16:46.008Z,20.65
2022-08-05T16:19:25.287Z,20.61
2022-08-05T16:22:01.133Z,20.27
2022-08-05T16:24:41.872Z,20.65
2022-08-05T16:27:19.398Z,20.68
2022-08-05T16:30:00.179Z,20.85
2022-08-05T16:32:29.233Z,21.35
2022-08-05T16:34:58.923Z,21.21
2022-08-05T16:38:02.323Z,21.40
2022-08-05T16:40:24.923Z,20.95
2022-08-05T16:42:54.517Z,20.76
2022-08-05T16:46:06.536Z,20.66
2022-08-05T16:48:10.251Z,21.00
2022-08-05T16:50:38.330Z,20.72
2022-08-05T16:53:12.697Z,20.71
2022-08-05T16:55:53.064Z,20.95
2022-08-05T16:58:21.281Z,20.29
2022-08-05T17:00:53.239Z,21.01
2022-08-05T17:03:21.195Z,22.02
2022-08-05T17:05:53.883Z,22.30
2022-08-05T17:08:36.017Z,21.90
2022-08-05T17:11:16.574Z,21.92
2022-08-05T17:13:45.401Z,21.74
2022-08-05T17:16:29.839Z,21.87
2022-08-05T17:19:01.458Z,21.36
2022-08-05T17:21:35.297Z,21.24
2022-08-05T17:24:19.348Z,22.19
2022-08-05T17:26:54.089Z,22.37
2022-08-05T17:29:33.313Z,22.55
2022-08-05T17:32:14.774Z,22.59
2022-08-05T17:34:47.487Z,22.84
2022-08-05T17:37:40.937Z,22.64
2022-08-05T17:40:12.137Z,23.80
2022-08-05T17:42:50.564Z,22.98
2022-08-05T17:45:21.233Z,23.30
2022-08-05T17:47:53.990Z,23.26
2022-08-05T17:50:28.587Z,22.69
2022-08-05T17:53:00.024Z,23.05
2022-08-05T17:55:37.479Z,22.51
2022-08-05T17:58:11.076Z,22.01
2022-08-05T18:00:45.117Z,21.56
2022-08-05T18:06:11.535Z,20.66
2022-08-05T18:08:44.865Z,21.01
2022-08-05T18:11:23.876Z,20.71
2022-08-05T18:13:54.611Z,20.50
2022-08-05T18:16:23.213Z,20.70
2022-08-05T18:18:51.342Z,20.71
2022-08-05T18:21:22.729Z,20.57
2022-08-05T18:23:54.420Z,20.19
2022-08-05T18:26:29.183Z,20.12
2022-08-05T18:29:01.213Z,20.12
2022-08-05T18:31:33.085Z,20.04
2022-08-05T18:34:06.031Z,19.94
2022-08-05T18:36:39.889Z,19.87
2022-08-05T18:39:22.298Z,19.95
2022-08-05T18:42:03.724Z,19.91
2022-08-05T18:44:35.409Z,20.21
2022-08-05T18:47:19.646Z,19.88
2022-08-05T18:50:10.476Z,20.05
2022-08-05T18:52:41.710Z,20.04
2022-08-05T18:55:20.399Z,19.81
2022-08-05T18:57:53.090Z,19.90
2022-08-05T19:00:28.394Z,19.90
2022-08-05T19:03:03.570Z,19.98
2022-08-05T19:06:12.021Z,19.99
2022-08-05T19:08:30.767Z,20.14
2022-08-05T19:10:59.745Z,19.78
2022-08-05T19:13:36.131Z,19.70
2022-08-05T19:16:24.536Z,19.80
2022-08-05T19:18:56.654Z,19.72
2022-08-05T19:21:25.056Z,19.70
2022-08-05T19:24:07.615Z,19.57
2022-08-05T19:26:43.857Z,19.75
2022-08-05T19:29:35.543Z,19.45
2022-08-05T19:32:06.283Z,19.26
2022-08-05T19:34:39.679Z,19.39
2022-08-05T19:37:08.142Z,19.37
2022-08-05T19:39:45.697Z,19.46
2022-08-05T19:42:19.250Z,19.52
2022-08-05T19:45:05.882Z,19.12
2022-08-05T19:47:37.473Z,19.20
2022-08-05T19:50:07.857Z,18.99
2022-08-05T19:52:38.530Z,19.12
2022-08-05T19:56:11.587Z,18.93
2022-08-05T19:58:04.067Z,19.34
2022-08-05T20:00:45.591Z,19.02
2022-08-05T20:03:15.079Z,19.49
2022-08-05T20:05:51.113Z,19.40
2022-08-05T20:08:19.785Z,19.29
2022-08-05T20:10:49.534Z,18.82
2022-08-05T20:13:29.960Z,18.64
2022-08-05T20:15:58.170Z,18.68
2022-08-05T20:18:33.779Z,19.14
2022-08-05T20:21:04.655Z,19.12
2022-08-05T20:23:39.506Z,19.24
2022-08-05T20:26:17.681Z,18.70
2022-08-05T20:28:48.008Z,18.66
2022-08-05T20:31:16.665Z,18.82
2022-08-05T20:33:46.056Z,18.44
2022-08-05T20:36:16.118Z,18.81
2022-08-05T20:38:54.391Z,19.02
2022-08-05T20:41:27.441Z,19.07
2022-08-05T20:44:18.926Z,18.64
2022-08-05T20:46:57.738Z,18.86
2022-08-05T20:49:26.936Z,18.70
2022-08-05T20:51:55.083Z,18.75
2022-08-05T20:54:22.929Z,18.79
2022-08-05T20:56:52.805Z,18.81
2022-08-05T20:59:26.654Z,19.13
2022-08-05T21:01:57.846Z,18.85
2022-08-05T21:04:27.536Z,18.34
2022-08-05T21:06:55.806Z,18.47
2022-08-05T21:09:23.754Z,18.61
2022-08-05T21:12:09.702Z,18.08
2022-08-05T21:14:38.909Z,18.53
2022-08-05T21:17:07.058Z,18.54
2022-08-05T21:19:47.354Z,18.58
2022-08-05T21:22:18.515Z,18.62
2022-08-05T21:24:51.558Z,18.55
2022-08-05T21:27:20.643Z,18.47
2022-08-05T21:29:55.688Z,18.41
2022-08-05T21:32:26.642Z,18.52
2022-08-05T21:35:17.385Z,18.48
2022-08-05T21:37:48.086Z,18.60
2022-08-05T21:40:21.835Z,18.42
2022-08-05T21:42:51.938Z,18.39
2022-08-05T21:45:24.646Z,18.05
2022-08-05T21:47:56.144Z,18.10
2022-08-05T21:50:27.841Z,18.06
2022-08-05T21:52:58.826Z,18.37
2022-08-05T21:56:04.156Z,18.01
2022-08-05T21:58:20.111Z,18.19
2022-08-05T22:00:52.792Z,17.92
2022-08-05T22:03:48.789Z,17.76
2022-08-05T22:06:09.834Z,17.98
2022-08-05T22:08:37.812Z,18.20
2022-08-05T22:11:11.869Z,17.82
2022-08-05T22:14:32.408Z,17.94
2022-08-05T22:16:41.928Z,17.94
2022-08-05T22:20:00.866Z,18.41
2022-08-05T22:22:08.888Z,18.20
2022-08-05T22:24:55.734Z,18.11
2022-08-05T22:28:09.620Z,18.12
2022-08-05T22:30:34.973Z,17.82
2022-08-05T22:33:03.448Z,17.90
2022-08-05T22:35:47.870Z,17.71
2022-08-05T22:38:19.638Z,18.00
2022-08-05T22:40:49.993Z,17.52
2022-08-05T22:43:36.933Z,17.65
2022-08-05T22:46:13.547Z,17.70
2022-08-05T22:48:51.239Z,17.91
2022-08-05T22:51:22.776Z,17.75
2022-08-05T22:53:59.413Z,17.89
2022-08-05T22:56:30.164Z,17.98
2022-08-05T22:59:00.095Z,17.65
2022-08-05T23:02:04.387Z,17.52
2022-08-05T23:04:21.193Z,17.68
2022-08-05T23:06:48.962Z,17.95
2022-08-05T23:09:27.810Z,17.76
2022-08-05T23:12:06.326Z,17.63
2022-08-05T23:14:34.206Z,17.55
2022-08-05T23:17:24.564Z,17.69
2022-08-05T23:20:03.459Z,17.45
2022-08-05T23:22:31.270Z,17.62
2022-08-05T23:25:00.406Z,17.64
2022-08-05T23:27:31.284Z,17.55
2022-08-05T23:30:11.429Z,17.67
2022-08-05T23:32:44.993Z,17.56
2022-08-05T23:35:13.397Z,18.10
2022-08-05T23:37:41.312Z,17.60
2022-08-05T23:40:13.004Z,17.52
2022-08-05T23:42:41.797Z,17.71
2022-08-05T23:45:15.855Z,17.60
2022-08-05T23:47:47.900Z,17.95
2022-08-05T23:50:17.028Z,17.38
2022-08-05T23:52:50.168Z,17.90
2022-08-05T23:55:19.975Z,17.59
2022-08-05T23:57:52.655Z,17.88
